createdAt,value
2023-02-26T00:00:20.751Z,99191.34
2023-02-26T00:02:48.684Z,99187.09
2023-02-26T00:05:16.496Z,99184.06
2023-02-26T00:07:43.408Z,99194.00
2023-02-26T00:10:13.726Z,99166.91
2023-02-26T00:12:40.739Z,99190.88
2023-02-26T00:15:08.403Z,99184.94
2023-02-26T00:17:37.966Z,99178.75
2023-02-26T00:20:06.577Z,99209.97
2023-02-26T00:22:33.505Z,99221.00
2023-02-26T00:25:00.109Z,99200.66
2023-02-26T00:27:26.744Z,99191.09
2023-02-26T00:29:54.296Z,99168.97
2023-02-26T00:32:21.209Z,99159.41
2023-02-26T00:34:48.567Z,99155.06
2023-02-26T00:37:38.738Z,99156.16
2023-02-26T00:40:42.452Z,99171.63
2023-02-26T00:43:15.942Z,99190.50
2023-02-26T00:46:19.132Z,99192.56
2023-02-26T00:49:07.185Z,99182.66
2023-02-26T00:51:48.110Z,99169.47
2023-02-26T00:54:24.199Z,99175.63
2023-02-26T00:56:52.723Z,99190.97
2023-02-26T00:59:20.414Z,99182.16
2023-02-26T01:01:47.577Z,99185.81
2023-02-26T01:04:16.349Z,99184.84
2023-02-26T01:06:52.526Z,99177.94
2023-02-26T01:09:32.021Z,99178.91
2023-02-26T01:12:01.673Z,99188.69
2023-02-26T01:14:30.013Z,99190.25
2023-02-26T01:17:21.240Z,99215.41
2023-02-26T01:20:22.149Z,99228.00
2023-02-26T01:23:03.956Z,99217.72
2023-02-26T01:25:44.649Z,99208.16
2023-02-26T01:28:11.461Z,99192.44
2023-02-26T01:30:38.578Z,99198.59
2023-02-26T01:33:25.717Z,99191.47
2023-02-26T01:35:52.236Z,99186.41
2023-02-26T01:38:37.160Z,99182.88
2023-02-26T01:41:27.030Z,99174.78
2023-02-26T01:44:08.673Z,99179.13
2023-02-26T01:46:49.417Z,99166.59
2023-02-26T01:49:19.290Z,99176.47
2023-02-26T01:51:50.579Z,99172.00
2023-02-26T01:54:21.873Z,99176.34
2023-02-26T01:56:53.171Z,99181.06
2023-02-26T01:59:24.785Z,99209.59
2023-02-26T02:01:56.955Z,99222.78
2023-02-26T02:04:24.716Z,99222.06
2023-02-26T02:06:51.929Z,99234.63
2023-02-26T02:09:18.657Z,99230.25
2023-02-26T02:12:10.188Z,99216.00
2023-02-26T02:14:46.731Z,99205.50
2023-02-26T02:17:34.969Z,99196.31
2023-02-26T02:20:23.383Z,99192.19
2023-02-26T02:22:52.984Z,99204.75
2023-02-26T02:25:48.843Z,99212.72
2023-02-26T02:28:33.908Z,99212.97
2023-02-26T02:31:09.764Z,99210.53
2023-02-26T02:33:49.800Z,99224.59
2023-02-26T02:36:25.340Z,99225.56
2023-02-26T02:38:57.710Z,99241.63
2023-02-26T02:41:48.764Z,99239.19
2023-02-26T02:44:19.860Z,99230.59
2023-02-26T02:46:48.969Z,99231.56
2023-02-26T02:49:25.432Z,99239.53
2023-02-26T02:52:00.683Z,99237.28
2023-02-26T02:54:39.005Z,99242.09
2023-02-26T02:57:16.194Z,99242.91
2023-02-26T02:59:46.295Z,99244.75
2023-02-26T03:02:25.679Z,99242.44
2023-02-26T03:04:52.702Z,99248.38
2023-02-26T03:07:19.356Z,99265.19
2023-02-26T03:09:46.805Z,99264.47
2023-02-26T03:12:13.442Z,99271.09
2023-02-26T03:14:40.716Z,99262.84
2023-02-26T03:17:25.864Z,99250.75
2023-02-26T03:20:05.047Z,99249.16
2023-02-26T03:22:55.928Z,99265.47
2023-02-26T03:25:49.492Z,99252.41
2023-02-26T03:28:15.984Z,99265.69
2023-02-26T03:30:50.784Z,99266.09
2023-02-26T03:33:21.753Z,99265.97
2023-02-26T03:36:10.260Z,99254.59
2023-02-26T03:38:43.971Z,99269.59
2023-02-26T03:41:17.199Z,99255.00
2023-02-26T03:43:54.166Z,99262.97
2023-02-26T03:46:34.392Z,99272.00
2023-02-26T03:49:07.786Z,99278.28
2023-02-26T03:51:37.198Z,99283.63
2023-02-26T03:54:10.044Z,99287.56
2023-02-26T03:56:46.094Z,99294.56
2023-02-26T03:59:14.868Z,99293.31
2023-02-26T04:02:22.490Z,99276.00
2023-02-26T04:05:11.364Z,99262.31
2023-02-26T04:07:39.560Z,99258.31
2023-02-26T04:10:08.500Z,99269.16
2023-02-26T04:12:35.148Z,99274.69
2023-02-26T04:15:02.360Z,99275.88
2023-02-26T04:17:30.419Z,99273.69
2023-02-26T04:19:57.098Z,99288.13
2023-02-26T04:22:23.873Z,99290.78
2023-02-26T04:24:50.449Z,99296.50
2023-02-26T04:27:17.025Z,99315.00
2023-02-26T04:29:43.621Z,99331.13
2023-02-26T04:32:10.440Z,99337.50
2023-02-26T04:34:37.124Z,99325.31
2023-02-26T04:37:03.763Z,99322.78
2023-02-26T04:39:30.300Z,99342.97
2023-02-26T04:41:56.857Z,99347.63
2023-02-26T04:44:23.934Z,99340.00
2023-02-26T04:46:50.505Z,99364.00
2023-02-26T04:49:17.247Z,99339.59
2023-02-26T04:51:43.803Z,99345.84
2023-02-26T04:54:10.384Z,99340.75
2023-02-26T04:56:36.922Z,99332.78
2023-02-26T04:59:03.529Z,99347.25
2023-02-26T05:01:30.661Z,99357.13
2023-02-26T05:03:57.313Z,99352.78
2023-02-26T05:06:24.257Z,99346.72
2023-02-26T05:08:50.989Z,99337.88
2023-02-26T05:11:17.587Z,99346.06
2023-02-26T05:13:44.186Z,99357.31
2023-02-26T05:16:10.958Z,99345.44
2023-02-26T05:18:37.563Z,99344.69
2023-02-26T05:21:05.710Z,99350.22
2023-02-26T05:23:32.558Z,99353.72
2023-02-26T05:25:59.459Z,99363.16
2023-02-26T05:28:26.960Z,99362.00
2023-02-26T05:30:53.662Z,99376.00
2023-02-26T05:33:20.333Z,99390.16
2023-02-26T05:35:48.168Z,99385.56
2023-02-26T05:38:15.104Z,99382.19
2023-02-26T05:40:41.649Z,99380.69
2023-02-26T05:43:08.788Z,99375.72
2023-02-26T05:45:35.435Z,99392.16
2023-02-26T05:48:02.389Z,99409.47
2023-02-26T05:50:30.564Z,99408.06
2023-02-26T05:52:57.401Z,99414.97
2023-02-26T05:55:24.625Z,99420.50
2023-02-26T05:57:51.209Z,99428.16
2023-02-26T06:00:18.179Z,99413.38
2023-02-26T06:02:44.759Z,99413.81
2023-02-26T06:05:11.478Z,99425.09
2023-02-26T06:07:38.259Z,99421.81
2023-02-26T06:10:06.425Z,99422.97
2023-02-26T06:12:33.008Z,99426.56
2023-02-26T06:14:59.643Z,99434.63
2023-02-26T06:17:27.169Z,99443.66
2023-02-26T06:19:53.760Z,99438.34
2023-02-26T06:22:22.654Z,99446.50
2023-02-26T06:24:49.281Z,99458.94
2023-02-26T06:27:15.960Z,99461.59
2023-02-26T06:29:42.738Z,99460.53
2023-02-26T06:32:09.424Z,99457.88
2023-02-26T06:34:36.037Z,99455.22
2023-02-26T06:37:02.733Z,99456.94
2023-02-26T06:39:29.474Z,99459.47
2023-02-26T06:41:56.028Z,99468.09
2023-02-26T06:44:22.751Z,99483.78
2023-02-26T06:46:49.404Z,99489.75
2023-02-26T06:49:15.960Z,99486.25
2023-02-26T06:51:42.586Z,99486.66
2023-02-26T06:54:09.177Z,99489.13
2023-02-26T06:56:35.720Z,99486.59
2023-02-26T06:59:02.282Z,99488.56
2023-02-26T07:01:28.947Z,99476.59
2023-02-26T07:03:55.537Z,99473.59
2023-02-26T07:06:27.796Z,99475.19
2023-02-26T07:08:55.216Z,99475.19
2023-02-26T07:11:21.860Z,99476.00
2023-02-26T07:13:48.441Z,99483.69
2023-02-26T07:16:15.058Z,99467.50
2023-02-26T07:18:41.671Z,99471.03
2023-02-26T07:21:08.302Z,99469.19
2023-02-26T07:23:35.323Z,99463.78
2023-02-26T07:26:02.374Z,99470.25
2023-02-26T07:28:28.971Z,99466.53
2023-02-26T07:30:56.500Z,99476.09
2023-02-26T07:33:23.393Z,99454.53
2023-02-26T07:35:49.987Z,99449.41
2023-02-26T07:38:19.139Z,99470.41
2023-02-26T07:40:46.765Z,99495.38
2023-02-26T07:43:13.359Z,99478.09
2023-02-26T07:45:39.934Z,99459.88
2023-02-26T07:48:06.591Z,99479.75
2023-02-26T07:50:33.662Z,99473.00
2023-02-26T07:53:00.377Z,99478.38
2023-02-26T07:55:27.828Z,99479.28
2023-02-26T07:57:54.459Z,99481.03
2023-02-26T08:00:21.548Z,99481.06
2023-02-26T08:02:48.332Z,99484.09
2023-02-26T08:05:14.899Z,99479.25
2023-02-26T08:07:41.444Z,99475.66
2023-02-26T08:10:08.682Z,99474.84
2023-02-26T08:12:36.638Z,99471.59
2023-02-26T08:15:04.436Z,99475.19
2023-02-26T08:17:31.252Z,99475.69
2023-02-26T08:19:57.852Z,99478.84
2023-02-26T08:22:24.554Z,99487.44
2023-02-26T08:24:51.196Z,99488.06
2023-02-26T08:27:17.876Z,99488.78
2023-02-26T08:29:46.314Z,99497.28
2023-02-26T08:32:15.741Z,99487.22
2023-02-26T08:34:42.473Z,99483.47
2023-02-26T08:37:11.664Z,99488.53
2023-02-26T08:39:39.050Z,99495.34
2023-02-26T08:42:10.392Z,99512.16
2023-02-26T08:44:37.237Z,99506.72
2023-02-26T08:47:03.993Z,99503.56
2023-02-26T08:49:31.032Z,99517.97
2023-02-26T08:51:57.716Z,99520.41
2023-02-26T08:54:24.401Z,99517.63
2023-02-26T08:56:51.392Z,99521.13
2023-02-26T08:59:18.145Z,99527.81
2023-02-26T09:01:44.856Z,99532.66
2023-02-26T09:04:11.425Z,99540.97
2023-02-26T09:06:38.012Z,99532.38
2023-02-26T09:09:04.740Z,99540.13
2023-02-26T09:11:32.515Z,99538.91
2023-02-26T09:13:59.617Z,99531.47
2023-02-26T09:16:27.132Z,99539.84
2023-02-26T09:18:53.933Z,99548.94
2023-02-26T09:21:21.254Z,99540.53
2023-02-26T09:23:47.988Z,99535.94
2023-02-26T09:26:14.840Z,99552.53
2023-02-26T09:28:41.482Z,99555.22
2023-02-26T09:31:08.284Z,99559.34
2023-02-26T09:33:35.189Z,99549.38
2023-02-26T09:36:01.793Z,99562.59
2023-02-26T09:38:28.459Z,99568.94
2023-02-26T09:40:59.655Z,99571.31
2023-02-26T09:43:54.232Z,99557.72
2023-02-26T09:46:39.505Z,99566.94
2023-02-26T09:49:20.139Z,99567.97
2023-02-26T09:51:52.272Z,99559.47
2023-02-26T09:54:23.483Z,99558.00
2023-02-26T09:56:53.036Z,99555.06
2023-02-26T09:59:19.698Z,99552.72
2023-02-26T10:02:07.801Z,99555.59
2023-02-26T10:04:51.047Z,99555.13
2023-02-26T10:07:38.872Z,99565.75
2023-02-26T10:10:12.415Z,99575.00
2023-02-26T10:12:41.799Z,99588.03
2023-02-26T10:15:29.192Z,99598.50
2023-02-26T10:18:04.525Z,99611.69
2023-02-26T10:20:54.095Z,99614.22
2023-02-26T10:23:23.826Z,99616.94
2023-02-26T10:26:04.038Z,99625.88
2023-02-26T10:28:42.510Z,99622.06
2023-02-26T10:31:13.883Z,99630.47
2023-02-26T10:34:05.656Z,99632.91
2023-02-26T10:36:58.837Z,99622.78
2023-02-26T10:40:10.046Z,99633.41
2023-02-26T10:42:50.992Z,99631.78
2023-02-26T10:45:27.335Z,99636.03
2023-02-26T10:48:08.852Z,99636.75
2023-02-26T10:50:35.990Z,99645.38
2023-02-26T10:53:03.145Z,99654.81
2023-02-26T10:55:34.061Z,99636.19
2023-02-26T10:58:05.584Z,99643.56
2023-02-26T11:00:35.281Z,99653.50
2023-02-26T11:03:05.380Z,99655.19
2023-02-26T11:05:33.812Z,99653.59
2023-02-26T11:08:10.861Z,99656.00
2023-02-26T11:10:50.688Z,99658.19
2023-02-26T11:13:17.313Z,99652.88
2023-02-26T11:15:47.578Z,99653.75
2023-02-26T11:18:19.208Z,99665.81
2023-02-26T11:20:47.243Z,99663.69
2023-02-26T11:23:18.665Z,99667.09
2023-02-26T11:25:45.527Z,99670.78
2023-02-26T11:28:51.200Z,99675.16
2023-02-26T11:31:19.124Z,99673.59
2023-02-26T11:33:50.813Z,99673.47
2023-02-26T11:36:20.793Z,99668.81
2023-02-26T11:38:54.951Z,99676.00
2023-02-26T11:41:24.088Z,99677.84
2023-02-26T11:44:01.621Z,99672.16
2023-02-26T11:46:28.961Z,99675.28
2023-02-26T11:48:58.205Z,99668.66
2023-02-26T11:51:27.657Z,99679.94
2023-02-26T11:54:02.879Z,99678.69
2023-02-26T11:56:39.106Z,99672.00
2023-02-26T11:59:16.605Z,99673.72
2023-02-26T12:01:43.292Z,99676.81
2023-02-26T12:04:13.509Z,99680.53
2023-02-26T12:06:40.248Z,99683.47
2023-02-26T12:09:12.538Z,99691.41
2023-02-26T12:11:48.314Z,99687.28
2023-02-26T12:14:20.915Z,99695.66
2023-02-26T12:16:56.124Z,99701.28
2023-02-26T12:19:49.441Z,99703.94
2023-02-26T12:22:15.990Z,99700.00
2023-02-26T12:25:36.948Z,99705.94
2023-02-26T12:28:11.285Z,99704.34
2023-02-26T12:30:59.049Z,99706.88
2023-02-26T12:34:07.182Z,99704.78
2023-02-26T12:36:47.613Z,99703.94
2023-02-26T12:39:40.795Z,99710.44
2023-02-26T12:42:55.454Z,99714.38
2023-02-26T12:45:41.341Z,99720.16
2023-02-26T12:48:13.858Z,99718.88
2023-02-26T12:51:25.767Z,99727.91
2023-02-26T12:53:58.315Z,99725.22
2023-02-26T12:56:34.069Z,99724.38
2023-02-26T12:59:25.447Z,99722.81
2023-02-26T13:02:00.893Z,99737.34
2023-02-26T13:04:36.466Z,99732.09
2023-02-26T13:07:03.025Z,99730.13
2023-02-26T13:10:07.120Z,99731.53
2023-02-26T13:12:41.120Z,99735.63
2023-02-26T13:15:25.358Z,99739.72
2023-02-26T13:18:02.206Z,99745.66
2023-02-26T13:20:29.745Z,99745.53
2023-02-26T13:23:10.484Z,99754.25
2023-02-26T13:25:48.746Z,99747.31
2023-02-26T13:28:24.373Z,99753.09
2023-02-26T13:30:56.045Z,99748.00
2023-02-26T13:33:29.844Z,99749.25
2023-02-26T13:35:57.583Z,99754.19
2023-02-26T13:38:42.145Z,99753.84
2023-02-26T13:41:42.509Z,99755.38
2023-02-26T13:44:26.292Z,99760.53
2023-02-26T13:47:16.985Z,99762.91
2023-02-26T13:49:55.864Z,99760.78
2023-02-26T13:52:31.719Z,99761.88
2023-02-26T13:54:59.509Z,99758.63
2023-02-26T13:57:36.062Z,99762.78
2023-02-26T14:00:27.554Z,99772.09
2023-02-26T14:03:10.577Z,99773.91
2023-02-26T14:05:49.208Z,99781.34
2023-02-26T14:08:22.515Z,99800.72
2023-02-26T14:11:24.984Z,99805.91
2023-02-26T14:14:12.428Z,99804.84
2023-02-26T14:16:47.144Z,99811.28
2023-02-26T14:19:13.614Z,99816.88
2023-02-26T14:22:19.619Z,99822.75
2023-02-26T14:24:54.253Z,99823.41
2023-02-26T14:27:20.667Z,99826.56
2023-02-26T14:29:56.292Z,99831.31
2023-02-26T14:32:31.331Z,99829.03
2023-02-26T14:35:20.487Z,99827.94
2023-02-26T14:38:03.739Z,99832.00
2023-02-26T14:40:36.716Z,99835.16
2023-02-26T14:43:06.937Z,99830.16
2023-02-26T14:45:39.330Z,99836.75
2023-02-26T14:48:12.943Z,99831.63
2023-02-26T14:50:54.458Z,99837.22
2023-02-26T14:53:39.301Z,99836.28
2023-02-26T14:56:31.734Z,99839.88
2023-02-26T14:59:01.306Z,99849.25
2023-02-26T15:01:48.128Z,99847.19
2023-02-26T15:04:22.704Z,99859.34
2023-02-26T15:07:21.188Z,99861.50
2023-02-26T15:10:22.012Z,99869.53
2023-02-26T15:13:32.770Z,99873.66
2023-02-26T15:16:23.687Z,99881.28
2023-02-26T15:18:56.273Z,99887.09
2023-02-26T15:21:34.921Z,99888.44
2023-02-26T15:24:02.413Z,99892.91
2023-02-26T15:26:32.982Z,99892.09
2023-02-26T15:29:04.749Z,99911.97
2023-02-26T15:31:36.122Z,99909.78
2023-02-26T15:34:04.006Z,99907.00
2023-02-26T15:36:31.442Z,99916.09
2023-02-26T15:39:01.704Z,99915.44
2023-02-26T15:41:31.463Z,99913.03
2023-02-26T15:44:08.256Z,99907.56
2023-02-26T15:46:38.765Z,99918.97
2023-02-26T15:49:16.907Z,99920.06
2023-02-26T15:51:45.020Z,99924.56
2023-02-26T15:54:19.697Z,99928.31
2023-02-26T15:56:46.640Z,99928.44
2023-02-26T15:59:33.005Z,99931.09
2023-02-26T16:02:02.917Z,99942.84
2023-02-26T16:04:29.600Z,99937.72
2023-02-26T16:06:58.231Z,99941.38
2023-02-26T16:09:40.186Z,99945.88
2023-02-26T16:12:11.909Z,99954.81
2023-02-26T16:14:46.392Z,99950.72
2023-02-26T16:17:24.158Z,99963.31
2023-02-26T16:19:51.920Z,99967.03
2023-02-26T16:22:25.701Z,99972.72
2023-02-26T16:24:58.777Z,99972.97
2023-02-26T16:27:29.164Z,99971.38
2023-02-26T16:29:58.460Z,99982.28
2023-02-26T16:32:28.372Z,99981.44
2023-02-26T16:34:57.737Z,99979.84
2023-02-26T16:37:31.220Z,99985.28
2023-02-26T16:40:12.669Z,99994.25
2023-02-26T16:42:51.883Z,99989.03
2023-02-26T16:45:36.642Z,100001.50
2023-02-26T16:48:26.149Z,100007.81
2023-02-26T16:51:08.619Z,100000.78
2023-02-26T16:54:04.892Z,100008.97
2023-02-26T16:56:35.478Z,100006.22
2023-02-26T16:59:22.394Z,100008.88
2023-02-26T17:01:53.526Z,100012.63
2023-02-26T17:04:24.326Z,100017.00
2023-02-26T17:06:52.518Z,100017.13
2023-02-26T17:09:26.914Z,100024.38
2023-02-26T17:12:12.639Z,100013.06
2023-02-26T17:14:48.047Z,100027.16
2023-02-26T17:17:14.764Z,100029.06
2023-02-26T17:19:41.340Z,100032.72
2023-02-26T17:22:13.847Z,100035.38
2023-02-26T17:24:48.465Z,100043.28
2023-02-26T17:27:22.213Z,100038.16
2023-02-26T17:29:51.045Z,100032.94
2023-02-26T17:32:31.315Z,100044.56
2023-02-26T17:34:58.857Z,100042.13
2023-02-26T17:37:31.206Z,100038.81
2023-02-26T17:39:59.563Z,100036.34
2023-02-26T17:42:26.594Z,100034.75
2023-02-26T17:44:55.151Z,100041.16
2023-02-26T17:47:24.085Z,100044.78
2023-02-26T17:49:50.657Z,100044.91
2023-02-26T17:52:17.753Z,100046.94
2023-02-26T17:54:44.939Z,100048.00
2023-02-26T17:57:18.598Z,100051.63
2023-02-26T17:59:45.509Z,100043.72
2023-02-26T18:02:23.224Z,100046.72
2023-02-26T18:04:49.835Z,100054.81
2023-02-26T18:07:17.661Z,100063.06
2023-02-26T18:09:46.167Z,100052.59
2023-02-26T18:12:18.120Z,100058.25
2023-02-26T18:14:44.855Z,100058.34
2023-02-26T18:17:14.721Z,100062.19
2023-02-26T18:19:42.744Z,100070.94
2023-02-26T18:22:17.496Z,100071.78
2023-02-26T18:24:43.974Z,100076.38
2023-02-26T18:27:15.572Z,100065.94
2023-02-26T18:29:42.782Z,100064.22
2023-02-26T18:32:13.448Z,100065.25
2023-02-26T18:34:40.157Z,100068.06
2023-02-26T18:37:11.152Z,100069.97
2023-02-26T18:39:38.175Z,100075.50
2023-02-26T18:42:05.151Z,100076.34
2023-02-26T18:44:33.202Z,100074.34
2023-02-26T18:47:00.500Z,100072.75
2023-02-26T18:49:27.724Z,100082.63
2023-02-26T18:51:54.683Z,100084.47
2023-02-26T18:54:21.235Z,100082.75
2023-02-26T18:56:47.800Z,100086.38
2023-02-26T18:59:14.387Z,100089.25
2023-02-26T19:01:41.445Z,100091.91
2023-02-26T19:04:08.120Z,100096.38
2023-02-26T19:06:34.687Z,100100.09
2023-02-26T19:09:02.786Z,100100.09
2023-02-26T19:11:29.682Z,100092.13
2023-02-26T19:13:56.630Z,100098.09
2023-02-26T19:16:23.707Z,100099.91
2023-02-26T19:18:51.023Z,100109.72
2023-02-26T19:21:18.721Z,100114.84
2023-02-26T19:23:45.468Z,100114.72
2023-02-26T19:26:12.036Z,100115.59
2023-02-26T19:28:38.643Z,100122.63
2023-02-26T19:31:06.701Z,100117.28
2023-02-26T19:33:33.457Z,100129.56
2023-02-26T19:36:00.255Z,100127.75
2023-02-26T19:38:26.880Z,100124.03
2023-02-26T19:40:53.458Z,100128.50
2023-02-26T19:43:23.346Z,100140.03
2023-02-26T19:45:50.056Z,100133.72
2023-02-26T19:48:16.805Z,100142.69
2023-02-26T19:50:43.666Z,100155.06
2023-02-26T19:53:10.421Z,100154.31
2023-02-26T19:55:37.019Z,100160.38
2023-02-26T19:58:03.658Z,100161.44
2023-02-26T20:00:30.315Z,100160.56
2023-02-26T20:02:56.911Z,100154.69
2023-02-26T20:05:23.459Z,100161.22
2023-02-26T20:07:50.015Z,100168.34
2023-02-26T20:10:16.975Z,100173.75
2023-02-26T20:12:45.353Z,100169.59
2023-02-26T20:15:12.798Z,100171.72
2023-02-26T20:17:39.476Z,100174.47
2023-02-26T20:20:07.015Z,100174.56
2023-02-26T20:22:33.657Z,100179.25
2023-02-26T20:25:00.198Z,100177.84
2023-02-26T20:27:26.812Z,100182.22
2023-02-26T20:29:53.392Z,100190.53
2023-02-26T20:32:20.459Z,100185.47
2023-02-26T20:34:47.245Z,100195.56
2023-02-26T20:37:13.847Z,100198.53
2023-02-26T20:39:40.451Z,100199.59
2023-02-26T20:42:07.043Z,100205.22
2023-02-26T20:44:33.668Z,100212.44
2023-02-26T20:47:02.438Z,100219.00
2023-02-26T20:49:30.306Z,100225.38
2023-02-26T20:51:57.397Z,100228.13
2023-02-26T20:54:24.087Z,100228.34
2023-02-26T20:56:51.128Z,100233.75
2023-02-26T20:59:18.551Z,100244.41
2023-02-26T21:01:46.474Z,100235.75
2023-02-26T21:04:13.422Z,100247.53
2023-02-26T21:06:40.278Z,100243.16
2023-02-26T21:09:08.688Z,100251.22
2023-02-26T21:11:36.925Z,100255.81
2023-02-26T21:14:05.244Z,100253.22
2023-02-26T21:16:32.108Z,100254.28
2023-02-26T21:19:00.402Z,100254.56
2023-02-26T21:21:27.281Z,100257.41
2023-02-26T21:23:54.166Z,100265.59
2023-02-26T21:26:21.844Z,100257.97
2023-02-26T21:28:48.684Z,100259.91
2023-02-26T21:31:17.207Z,100259.09
2023-02-26T21:33:44.406Z,100252.53
2023-02-26T21:36:11.601Z,100256.44
2023-02-26T21:38:38.307Z,100267.34
2023-02-26T21:41:05.102Z,100272.25
2023-02-26T21:43:31.693Z,100276.91
2023-02-26T21:45:58.401Z,100279.06
2023-02-26T21:48:24.993Z,100285.34
2023-02-26T21:50:52.131Z,100286.44
2023-02-26T21:53:18.970Z,100284.25
2023-02-26T21:55:45.547Z,100277.41
2023-02-26T21:58:13.704Z,100274.44
2023-02-26T22:00:40.306Z,100277.16
2023-02-26T22:03:06.860Z,100276.50
2023-02-26T22:05:33.490Z,100269.72
2023-02-26T22:08:00.111Z,100277.78
2023-02-26T22:10:29.596Z,100283.94
2023-02-26T22:12:56.357Z,100291.25
2023-02-26T22:15:22.927Z,100286.13
2023-02-26T22:17:49.500Z,100286.94
2023-02-26T22:20:16.258Z,100290.03
2023-02-26T22:22:42.972Z,100292.00
2023-02-26T22:25:11.944Z,100298.53
2023-02-26T22:27:39.043Z,100289.97
2023-02-26T22:30:07.602Z,100293.66
2023-02-26T22:32:35.730Z,100290.53
2023-02-26T22:35:03.308Z,100286.28
2023-02-26T22:37:30.079Z,100290.88
2023-02-26T22:39:56.768Z,100292.69
2023-02-26T22:42:23.448Z,100312.22
2023-02-26T22:44:50.036Z,100309.56
2023-02-26T22:47:16.702Z,100304.41
2023-02-26T22:49:43.320Z,100310.94
2023-02-26T22:52:10.858Z,100307.66
2023-02-26T22:54:38.997Z,100319.56
2023-02-26T22:57:06.270Z,100312.94
2023-02-26T22:59:32.844Z,100313.03
2023-02-26T23:01:59.434Z,100314.31
2023-02-26T23:04:26.070Z,100310.84
2023-02-26T23:06:52.922Z,100318.03
2023-02-26T23:09:19.620Z,100328.81
2023-02-26T23:11:46.198Z,100322.81
2023-02-26T23:14:12.913Z,100333.41
2023-02-26T23:16:39.901Z,100339.84
2023-02-26T23:19:06.629Z,100339.91
2023-02-26T23:21:33.273Z,100341.88
2023-02-26T23:23:59.931Z,100345.53
2023-02-26T23:26:26.527Z,100350.28
2023-02-26T23:28:53.218Z,100362.84
2023-02-26T23:31:20.014Z,100362.22
2023-02-26T23:33:46.729Z,100362.47
2023-02-26T23:36:13.352Z,100365.25
2023-02-26T23:38:39.919Z,100367.97
2023-02-26T23:41:06.504Z,100365.63
2023-02-26T23:43:33.377Z,100362.97
2023-02-26T23:46:00.019Z,100362.66
2023-02-26T23:48:27.533Z,100367.28
2023-02-26T23:50:55.936Z,100371.66
2023-02-26T23:53:22.619Z,100373.44
2023-02-26T23:55:52.496Z,100385.84
2023-02-26T23:58:20.543Z,100381.63
